Time;durP1;ratioP1;P1;durP2;ratioP2;P2;SDS_P1;SDS_P2;PMS_P1;PMS_P2;Temp;Humidity;BMP_temperature;BMP_pressure;BME280_temperature;BME280_humidity;BME280_pressure;Samples;Min_cycle;Max_cycle;Signal;HPM_P1;HPM_P2
2023/03/05 00:01:09;;;;;;;174.48;47.65;;;;;;;;;;5026974;28;20045;-56
2023/03/05 00:03:34;;;;;;;185.30;50.53;;;;;;;;;;5026690;28;20489;-59
2023/03/05 00:05:59;;;;;;;178.50;47.92;;;;;;;;;;5027558;28;20029;-59
2023/03/05 00:08:24;;;;;;;172.80;50.47;;;;;;;;;;5026488;28;20029;-57
2023/03/05 00:10:57;;;;;;;205.73;52.70;;;;;;;;;;5026638;28;20037;-64
2023/03/05 00:13:22;;;;;;;206.18;52.45;;;;;;;;;;5027003;28;20033;-60
2023/03/05 00:15:48;;;;;;;201.88;49.95;;;;;;;;;;5028457;28;20029;-63
2023/03/05 00:18:13;;;;;;;182.45;48.70;;;;;;;;;;5029656;28;20435;-62
2023/03/05 00:20:38;;;;;;;178.25;47.13;;;;;;;;;;5027888;28;20061;-62
2023/03/05 00:23:03;;;;;;;173.88;48.80;;;;;;;;;;5028780;28;20040;-58
2023/03/05 00:25:29;;;;;;;200.57;51.50;;;;;;;;;;5029355;28;20490;-61
2023/03/05 00:27:54;;;;;;;180.68;48.75;;;;;;;;;;5029857;28;20033;-62
2023/03/05 00:30:19;;;;;;;188.52;47.90;;;;;;;;;;5026331;28;20037;-57
2023/03/05 00:32:45;;;;;;;195.43;50.78;;;;;;;;;;5025674;28;20030;-63
2023/03/05 00:35:11;;;;;;;184.52;50.15;;;;;;;;;;5026029;28;20234;-63
2023/03/05 00:37:36;;;;;;;211.45;51.67;;;;;;;;;;5028143;28;20037;-61
2023/03/05 00:40:02;;;;;;;199.45;50.95;;;;;;;;;;5026973;28;20038;-63
2023/03/05 00:42:27;;;;;;;189.40;50.63;;;;;;;;;;5025026;28;20053;-58
2023/03/05 00:44:53;;;;;;;170.10;47.15;;;;;;;;;;5025757;28;20123;-61
2023/03/05 00:47:18;;;;;;;176.75;49.05;;;;;;;;;;5023889;28;20422;-59
2023/03/05 00:49:43;;;;;;;186.43;48.97;;;;;;;;;;5026933;28;20482;-60
2023/03/05 00:52:09;;;;;;;167.85;46.78;;;;;;;;;;5057094;28;20037;-62
2023/03/05 00:54:34;;;;;;;192.57;48.05;;;;;;;;;;5028138;28;20037;-57
2023/03/05 00:56:59;;;;;;;178.75;45.40;;;;;;;;;;5027442;28;20485;-60
2023/03/05 00:59:25;;;;;;;192.32;48.97;;;;;;;;;;5027676;28;20025;-66
2023/03/05 01:01:50;;;;;;;186.60;48.70;;;;;;;;;;5026083;28;20034;-61
2023/03/05 01:04:15;;;;;;;189.73;50.03;;;;;;;;;;5026527;28;20037;-61
2023/03/05 01:06:45;;;;;;;174.73;44.65;;;;;;;;;;5032948;28;20424;-60
2023/03/05 01:09:12;;;;;;;198.55;49.03;;;;;;;;;;5026388;28;20020;-59
2023/03/05 01:11:37;;;;;;;187.82;49.33;;;;;;;;;;5024988;28;20667;-62
2023/03/05 01:14:02;;;;;;;193.23;49.60;;;;;;;;;;5024931;28;20084;-64
2023/03/05 01:16:28;;;;;;;195.05;49.80;;;;;;;;;;5022737;28;20033;-67
2023/03/05 01:18:53;;;;;;;162.90;44.63;;;;;;;;;;5024068;28;20041;-66
2023/03/05 01:21:20;;;;;;;169.90;45.47;;;;;;;;;;5023453;28;20032;-64
2023/03/05 01:23:45;;;;;;;176.45;47.30;;;;;;;;;;5026281;28;20033;-62
2023/03/05 01:26:10;;;;;;;188.20;47.58;;;;;;;;;;5027005;28;20033;-57
2023/03/05 01:28:37;;;;;;;193.48;48.38;;;;;;;;;;5026730;28;20033;-63
2023/03/05 01:31:05;;;;;;;170.93;43.72;;;;;;;;;;5027552;28;20041;-62
2023/03/05 01:33:30;;;;;;;184.98;45.03;;;;;;;;;;5040288;28;20112;-60
2023/03/05 01:35:56;;;;;;;176.68;41.60;;;;;;;;;;5024693;28;20117;-64
2023/03/05 01:38:21;;;;;;;177.32;42.88;;;;;;;;;;5028217;28;20029;-57
2023/03/05 01:40:46;;;;;;;169.90;44.88;;;;;;;;;;5027078;28;20029;-56
2023/03/05 01:43:12;;;;;;;177.10;40.72;;;;;;;;;;5026077;28;20064;-66
2023/03/05 01:45:38;;;;;;;160.55;41.10;;;;;;;;;;5028152;28;20048;-62
2023/03/05 01:48:03;;;;;;;163.73;42.17;;;;;;;;;;5026845;28;20045;-61
2023/03/05 01:50:29;;;;;;;158.48;43.30;;;;;;;;;;5027525;28;20033;-58
2023/03/05 01:52:59;;;;;;;175.77;44.05;;;;;;;;;;5024644;28;20083;-64
2023/03/05 01:55:27;;;;;;;160.45;41.08;;;;;;;;;;5056105;28;20037;-59
2023/03/05 01:58:02;;;;;;;164.43;45.15;;;;;;;;;;5014797;28;20033;-57
2023/03/05 02:00:33;;;;;;;175.20;46.80;;;;;;;;;;5045236;28;20107;-55
2023/03/05 02:03:01;;;;;;;172.48;46.03;;;;;;;;;;5026574;28;20403;-60
2023/03/05 02:05:31;;;;;;;163.50;45.22;;;;;;;;;;5025727;28;20486;-60
2023/03/05 02:08:00;;;;;;;161.23;44.75;;;;;;;;;;5025004;28;20152;-59
2023/03/05 02:10:27;;;;;;;175.05;46.67;;;;;;;;;;5024659;28;20033;-57
2023/03/05 02:12:55;;;;;;;163.27;42.35;;;;;;;;;;5016036;28;20029;-61
2023/03/05 02:15:20;;;;;;;149.90;42.38;;;;;;;;;;5024122;28;20084;-61
2023/03/05 02:17:46;;;;;;;165.95;46.53;;;;;;;;;;5057545;28;20036;-58
2023/03/05 02:20:13;;;;;;;164.85;44.38;;;;;;;;;;5057120;28;20140;-58
2023/03/05 02:22:38;;;;;;;160.35;43.45;;;;;;;;;;5026337;28;20049;-59
2023/03/05 02:25:11;;;;;;;175.15;47.28;;;;;;;;;;5023772;28;20111;-61
2023/03/05 02:27:37;;;;;;;166.27;42.88;;;;;;;;;;5032145;28;20045;-59
2023/03/05 02:30:02;;;;;;;147.98;40.08;;;;;;;;;;5026827;28;20485;-61
2023/03/05 02:32:28;;;;;;;154.57;38.17;;;;;;;;;;5027069;28;20030;-60
2023/03/05 02:34:53;;;;;;;125.20;33.88;;;;;;;;;;5023327;28;20026;-63
2023/03/05 02:37:19;;;;;;;138.43;33.55;;;;;;;;;;5024157;28;20053;-61
2023/03/05 02:39:44;;;;;;;115.68;32.90;;;;;;;;;;5027036;28;20052;-57
2023/03/05 02:42:09;;;;;;;112.65;31.83;;;;;;;;;;5024829;28;20526;-60
2023/03/05 02:44:35;;;;;;;123.15;31.23;;;;;;;;;;5025934;28;20124;-61
2023/03/05 02:47:01;;;;;;;135.93;30.58;;;;;;;;;;5028730;28;20028;-60
2023/03/05 02:49:27;;;;;;;117.70;31.25;;;;;;;;;;5027082;28;20033;-58
2023/03/05 02:51:52;;;;;;;109.95;30.00;;;;;;;;;;5029853;28;20223;-60
2023/03/05 02:54:18;;;;;;;148.90;37.10;;;;;;;;;;5027617;28;20037;-62
2023/03/05 02:56:43;;;;;;;118.55;33.78;;;;;;;;;;5030880;28;20037;-54
2023/03/05 02:59:08;;;;;;;131.05;36.25;;;;;;;;;;5030156;28;20390;-58
2023/03/05 03:01:34;;;;;;;123.22;34.85;;;;;;;;;;5028450;28;20033;-66
2023/03/05 03:03:59;;;;;;;129.57;33.65;;;;;;;;;;5031303;28;20890;-56
2023/03/05 03:06:24;;;;;;;109.55;32.53;;;;;;;;;;5029851;28;20036;-60
2023/03/05 03:08:50;;;;;;;125.90;32.90;;;;;;;;;;5029633;28;20084;-66
2023/03/05 03:11:16;;;;;;;124.70;32.83;;;;;;;;;;5028840;28;20032;-57
2023/03/05 03:13:41;;;;;;;135.15;33.47;;;;;;;;;;5029930;28;20091;-55
2023/03/05 03:16:09;;;;;;;133.95;32.20;;;;;;;;;;5028208;28;20450;-56
2023/03/05 03:18:34;;;;;;;115.95;31.50;;;;;;;;;;5030192;28;20079;-58
2023/03/05 03:21:00;;;;;;;104.45;29.67;;;;;;;;;;5029951;28;20084;-57
2023/03/05 03:23:25;;;;;;;114.90;32.80;;;;;;;;;;5028134;28;20164;-58
2023/03/05 03:25:50;;;;;;;124.82;33.22;;;;;;;;;;5029438;28;20029;-60
2023/03/05 03:28:16;;;;;;;122.40;33.50;;;;;;;;;;5028428;28;20056;-55
2023/03/05 03:30:41;;;;;;;116.38;32.13;;;;;;;;;;5029197;28;20026;-58
2023/03/05 03:33:07;;;;;;;100.10;30.38;;;;;;;;;;5028025;28;20108;-64
2023/03/05 03:35:32;;;;;;;104.80;30.77;;;;;;;;;;5035871;28;20021;-59
2023/03/05 03:37:57;;;;;;;107.72;32.72;;;;;;;;;;5028796;28;20398;-59
2023/03/05 03:40:22;;;;;;;97.22;29.55;;;;;;;;;;5029503;28;20037;-66
2023/03/05 03:42:50;;;;;;;107.82;29.92;;;;;;;;;;5028537;28;20040;-62
2023/03/05 03:45:15;;;;;;;116.82;31.83;;;;;;;;;;5028323;28;20113;-64
2023/03/05 03:47:40;;;;;;;107.32;28.85;;;;;;;;;;5029879;28;20128;-55
2023/03/05 03:50:06;;;;;;;100.30;27.20;;;;;;;;;;5027030;28;20090;-60
2023/03/05 03:52:31;;;;;;;102.13;29.63;;;;;;;;;;5027596;28;20450;-60
2023/03/05 03:55:00;;;;;;;111.40;29.33;;;;;;;;;;5027751;28;20687;-56
2023/03/05 03:57:26;;;;;;;110.38;31.15;;;;;;;;;;5025175;28;20748;-65
2023/03/05 03:59:51;;;;;;;110.00;29.65;;;;;;;;;;5027084;28;20068;-62
2023/03/05 04:02:17;;;;;;;115.20;31.58;;;;;;;;;;5059135;28;20131;-59
2023/03/05 04:04:42;;;;;;;102.50;29.73;;;;;;;;;;5029479;28;20109;-56
2023/03/05 04:07:07;;;;;;;109.82;30.80;;;;;;;;;;5029524;28;20658;-69
2023/03/05 04:09:33;;;;;;;96.55;30.40;;;;;;;;;;5026453;28;20388;-59
2023/03/05 04:11:58;;;;;;;108.40;30.35;;;;;;;;;;5028459;28;20025;-56
2023/03/05 04:14:25;;;;;;;117.00;30.98;;;;;;;;;;5026818;28;20108;-56
2023/03/05 04:16:50;;;;;;;107.35;30.73;;;;;;;;;;5027534;28;20068;-58
2023/03/05 04:19:16;;;;;;;115.05;32.65;;;;;;;;;;5026307;28;20037;-61
2023/03/05 04:21:41;;;;;;;110.22;33.15;;;;;;;;;;5028205;28;20040;-55
2023/03/05 04:24:07;;;;;;;107.97;31.27;;;;;;;;;;5025398;28;20044;-57
2023/03/05 04:26:32;;;;;;;104.50;31.20;;;;;;;;;;5028548;28;20017;-58
2023/03/05 04:28:57;;;;;;;110.35;31.88;;;;;;;;;;5028972;28;20037;-55
2023/03/05 04:31:23;;;;;;;124.40;32.22;;;;;;;;;;5026858;28;20950;-63
2023/03/05 04:33:48;;;;;;;126.03;34.78;;;;;;;;;;5028182;28;20029;-61
2023/03/05 04:36:13;;;;;;;112.68;33.45;;;;;;;;;;5027792;28;21778;-61
2023/03/05 04:38:39;;;;;;;111.18;31.45;;;;;;;;;;5028164;28;20029;-59
2023/03/05 04:41:04;;;;;;;112.20;32.85;;;;;;;;;;5027238;28;20120;-64
2023/03/05 04:43:29;;;;;;;112.28;31.77;;;;;;;;;;5027812;28;20112;-55
2023/03/05 04:45:54;;;;;;;118.47;32.15;;;;;;;;;;5027740;28;20030;-61
2023/03/05 04:48:20;;;;;;;109.53;33.13;;;;;;;;;;5027276;28;20045;-57
2023/03/05 04:50:45;;;;;;;100.53;31.90;;;;;;;;;;5027750;28;20029;-60
2023/03/05 04:53:10;;;;;;;121.78;33.50;;;;;;;;;;5025527;28;20025;-63
2023/03/05 04:55:36;;;;;;;106.90;33.17;;;;;;;;;;5027708;28;20039;-61
2023/03/05 04:58:01;;;;;;;106.97;33.80;;;;;;;;;;5029464;28;20116;-60
2023/03/05 05:00:26;;;;;;;97.47;30.75;;;;;;;;;;5027475;28;20421;-61
2023/03/05 05:02:52;;;;;;;113.65;31.80;;;;;;;;;;5027791;28;20033;-60
2023/03/05 05:05:22;;;;;;;108.20;32.20;;;;;;;;;;5024429;28;20037;-62
2023/03/05 05:07:47;;;;;;;107.25;32.28;;;;;;;;;;5027675;28;20048;-56
2023/03/05 05:10:13;;;;;;;96.40;29.52;;;;;;;;;;5026129;28;20037;-65
2023/03/05 05:12:38;;;;;;;118.88;33.97;;;;;;;;;;5028102;28;20061;-58
2023/03/05 05:15:05;;;;;;;105.30;32.05;;;;;;;;;;5026859;28;20104;-57
2023/03/05 05:17:31;;;;;;;114.80;33.05;;;;;;;;;;5024825;28;20091;-59
2023/03/05 05:19:57;;;;;;;105.50;31.63;;;;;;;;;;5026773;28;20048;-63
2023/03/05 05:22:23;;;;;;;104.25;31.02;;;;;;;;;;5026247;28;20025;-58
2023/03/05 05:24:48;;;;;;;115.75;32.42;;;;;;;;;;5029656;28;20536;-57
2023/03/05 05:27:13;;;;;;;112.25;33.90;;;;;;;;;;5025603;28;20077;-60
2023/03/05 05:29:39;;;;;;;109.95;32.13;;;;;;;;;;5028289;28;20025;-56
2023/03/05 05:32:04;;;;;;;104.18;31.38;;;;;;;;;;5026222;28;20141;-62
2023/03/05 05:34:29;;;;;;;107.90;32.88;;;;;;;;;;5055076;28;20040;-62
2023/03/05 05:36:55;;;;;;;93.38;29.25;;;;;;;;;;5026164;28;20488;-56
2023/03/05 05:39:20;;;;;;;108.28;31.60;;;;;;;;;;5027120;28;20025;-59
2023/03/05 05:41:48;;;;;;;96.32;31.67;;;;;;;;;;5025481;28;20033;-57
2023/03/05 05:44:14;;;;;;;96.03;29.58;;;;;;;;;;5024540;28;20049;-64
2023/03/05 05:46:39;;;;;;;103.25;30.58;;;;;;;;;;5026375;28;20029;-56
2023/03/05 05:49:04;;;;;;;97.53;30.02;;;;;;;;;;5025989;28;20394;-56
2023/03/05 05:51:29;;;;;;;98.28;29.38;;;;;;;;;;5025663;28;20054;-60
2023/03/05 05:53:55;;;;;;;90.00;28.80;;;;;;;;;;5025764;28;20026;-58
2023/03/05 05:56:20;;;;;;;102.13;31.73;;;;;;;;;;5024104;28;20467;-56
2023/03/05 05:58:46;;;;;;;110.95;31.10;;;;;;;;;;5026111;28;20497;-55
2023/03/05 06:01:16;;;;;;;104.22;30.40;;;;;;;;;;5026669;28;21146;-56
2023/03/05 06:03:41;;;;;;;93.85;30.42;;;;;;;;;;5023800;28;20083;-55
2023/03/05 06:06:08;;;;;;;97.65;28.98;;;;;;;;;;5025386;28;20492;-60
2023/03/05 06:08:33;;;;;;;95.07;30.52;;;;;;;;;;5021648;28;20034;-56
2023/03/05 06:10:59;;;;;;;105.32;31.77;;;;;;;;;;5021007;28;20052;-57
2023/03/05 06:13:24;;;;;;;89.75;28.98;;;;;;;;;;5023638;28;20020;-57
2023/03/05 06:15:56;;;;;;;92.88;29.52;;;;;;;;;;5025578;28;20385;-56
2023/03/05 06:18:22;;;;;;;94.88;30.42;;;;;;;;;;5024846;28;20071;-62
2023/03/05 06:20:52;;;;;;;98.70;29.75;;;;;;;;;;5026740;28;20083;-58
2023/03/05 06:23:18;;;;;;;100.38;31.83;;;;;;;;;;5022545;28;20037;-58
2023/03/05 06:25:43;;;;;;;94.90;29.75;;;;;;;;;;5026023;28;20547;-59
2023/03/05 06:28:08;;;;;;;99.75;29.90;;;;;;;;;;5026110;28;20041;-57
2023/03/05 06:30:33;;;;;;;102.97;32.10;;;;;;;;;;5027969;28;20040;-55
2023/03/05 06:32:59;;;;;;;98.72;30.23;;;;;;;;;;5026074;28;20080;-62
2023/03/05 06:35:24;;;;;;;94.47;29.13;;;;;;;;;;5024431;28;20468;-58
2023/03/05 06:37:49;;;;;;;86.97;29.23;;;;;;;;;;5026229;28;20393;-59
2023/03/05 06:40:15;;;;;;;99.03;30.63;;;;;;;;;;5025016;28;20063;-57
2023/03/05 06:42:40;;;;;;;93.10;30.70;;;;;;;;;;5025331;28;20025;-61
2023/03/05 06:45:06;;;;;;;96.80;31.13;;;;;;;;;;5023773;28;20040;-61
2023/03/05 06:47:31;;;;;;;100.38;30.65;;;;;;;;;;5024921;28;20044;-61
2023/03/05 06:49:56;;;;;;;103.78;31.02;;;;;;;;;;5025078;28;20037;-55
2023/03/05 06:52:22;;;;;;;104.35;29.42;;;;;;;;;;5024008;28;20030;-58
2023/03/05 06:54:47;;;;;;;90.43;28.55;;;;;;;;;;5025638;28;20099;-60
2023/03/05 06:57:12;;;;;;;89.20;28.50;;;;;;;;;;5021805;28;20554;-57
2023/03/05 06:59:38;;;;;;;108.70;30.17;;;;;;;;;;5024697;28;20450;-60
2023/03/05 07:02:03;;;;;;;89.70;29.42;;;;;;;;;;5025456;28;20088;-59
2023/03/05 07:04:28;;;;;;;86.32;27.42;;;;;;;;;;5021748;28;20103;-59
2023/03/05 07:06:54;;;;;;;120.53;37.08;;;;;;;;;;5023548;28;20049;-65
2023/03/05 07:09:19;;;;;;;107.63;34.50;;;;;;;;;;5025133;28;20025;-62
2023/03/05 07:11:45;;;;;;;105.90;33.15;;;;;;;;;;5022678;28;20518;-55
2023/03/05 07:14:10;;;;;;;97.43;29.83;;;;;;;;;;5022970;28;20044;-61
2023/03/05 07:16:35;;;;;;;99.80;28.13;;;;;;;;;;5023537;28;20052;-59
2023/03/05 07:19:02;;;;;;;95.35;28.98;;;;;;;;;;5023396;28;20075;-62
2023/03/05 07:21:29;;;;;;;98.22;28.13;;;;;;;;;;5024132;28;20156;-61
2023/03/05 07:23:55;;;;;;;82.90;27.00;;;;;;;;;;5024590;28;20045;-61
2023/03/05 07:26:21;;;;;;;91.50;28.58;;;;;;;;;;5024281;28;20030;-59
2023/03/05 07:28:46;;;;;;;89.50;28.05;;;;;;;;;;5026472;28;20083;-64
2023/03/05 07:31:13;;;;;;;89.78;27.70;;;;;;;;;;5025361;28;20112;-54
2023/03/05 07:33:38;;;;;;;92.78;28.13;;;;;;;;;;5023722;28;20675;-63
2023/03/05 07:36:06;;;;;;;98.00;27.88;;;;;;;;;;5058703;28;20501;-56
2023/03/05 07:38:31;;;;;;;99.18;28.33;;;;;;;;;;5027668;28;20619;-63
2023/03/05 07:41:00;;;;;;;101.93;28.58;;;;;;;;;;5027968;28;20037;-62
2023/03/05 07:43:26;;;;;;;75.50;24.10;;;;;;;;;;5028231;28;20017;-55
2023/03/05 07:45:51;;;;;;;78.20;23.67;;;;;;;;;;5028159;28;20048;-60
2023/03/05 07:48:19;;;;;;;94.35;26.23;;;;;;;;;;5027606;28;20663;-58
2023/03/05 07:50:45;;;;;;;92.50;26.58;;;;;;;;;;5027815;28;20506;-57
2023/03/05 07:53:10;;;;;;;94.25;26.70;;;;;;;;;;5025030;28;20032;-61
2023/03/05 07:55:41;;;;;;;83.10;24.92;;;;;;;;;;5027844;28;20051;-60
2023/03/05 07:58:06;;;;;;;91.13;26.15;;;;;;;;;;5028945;28;20033;-59
2023/03/05 08:00:31;;;;;;;99.60;26.17;;;;;;;;;;5026341;28;20400;-63
2023/03/05 08:02:56;;;;;;;83.25;24.30;;;;;;;;;;5026830;28;20044;-63
2023/03/05 08:05:22;;;;;;;83.40;23.33;;;;;;;;;;5026232;28;20057;-58
2023/03/05 08:07:47;;;;;;;87.20;23.95;;;;;;;;;;5027259;28;20063;-62
2023/03/05 08:10:12;;;;;;;92.13;23.65;;;;;;;;;;5027278;28;20037;-57
2023/03/05 08:12:38;;;;;;;90.70;23.08;;;;;;;;;;5028363;28;20025;-57
2023/03/05 08:15:03;;;;;;;87.15;22.75;;;;;;;;;;5029750;28;20030;-61
2023/03/05 08:17:28;;;;;;;76.25;20.25;;;;;;;;;;5027115;28;20104;-60
2023/03/05 08:19:57;;;;;;;86.55;22.98;;;;;;;;;;5027607;28;20095;-59
2023/03/05 08:22:22;;;;;;;72.57;22.02;;;;;;;;;;5025924;28;20026;-62
2023/03/05 08:24:48;;;;;;;80.57;21.10;;;;;;;;;;5026452;28;21142;-55
2023/03/05 08:27:14;;;;;;;82.87;21.83;;;;;;;;;;5026731;28;20504;-62
2023/03/05 08:29:39;;;;;;;71.13;20.58;;;;;;;;;;5026339;28;20516;-57
2023/03/05 08:32:04;;;;;;;78.10;21.30;;;;;;;;;;5026853;28;20034;-60
2023/03/05 08:34:29;;;;;;;80.72;23.25;;;;;;;;;;5026375;28;20033;-56
2023/03/05 08:36:55;;;;;;;89.20;23.92;;;;;;;;;;5025226;28;20045;-53
2023/03/05 08:39:20;;;;;;;82.05;22.90;;;;;;;;;;5028646;28;20045;-60
2023/03/05 08:41:45;;;;;;;80.57;24.55;;;;;;;;;;5026624;28;20040;-58
2023/03/05 08:44:11;;;;;;;91.85;23.42;;;;;;;;;;5023959;28;20037;-59
2023/03/05 08:46:39;;;;;;;82.93;23.15;;;;;;;;;;5025660;28;20029;-62
2023/03/05 08:49:06;;;;;;;90.57;25.17;;;;;;;;;;5025724;28;20037;-59
2023/03/05 08:51:31;;;;;;;93.47;24.60;;;;;;;;;;5026648;28;20068;-63
2023/03/05 08:53:57;;;;;;;92.78;24.15;;;;;;;;;;5025122;28;20872;-60
2023/03/05 08:56:24;;;;;;;97.95;23.65;;;;;;;;;;5027541;28;20034;-60
2023/03/05 08:58:51;;;;;;;77.50;22.27;;;;;;;;;;5003037;28;20095;-60
2023/03/05 09:01:16;;;;;;;76.63;23.67;;;;;;;;;;5017587;28;20045;-63
2023/03/05 09:03:41;;;;;;;94.00;24.85;;;;;;;;;;5023467;28;20030;-57
2023/03/05 09:06:08;;;;;;;94.22;27.33;;;;;;;;;;5026060;28;20060;-65
2023/03/05 09:08:33;;;;;;;91.70;28.97;;;;;;;;;;5025819;28;20042;-58
2023/03/05 09:11:03;;;;;;;94.05;26.92;;;;;;;;;;5026618;28;20048;-61
2023/03/05 09:13:28;;;;;;;84.80;24.33;;;;;;;;;;5024783;28;20099;-63
2023/03/05 09:15:57;;;;;;;90.22;26.25;;;;;;;;;;5025047;28;20033;-57
2023/03/05 09:18:23;;;;;;;74.05;23.55;;;;;;;;;;5025417;28;20065;-62
2023/03/05 09:20:48;;;;;;;78.95;21.95;;;;;;;;;;5026479;28;20071;-61
2023/03/05 09:23:14;;;;;;;95.70;23.15;;;;;;;;;;5027414;28;20120;-58
2023/03/05 09:25:39;;;;;;;89.82;23.80;;;;;;;;;;5025186;28;20030;-63
2023/03/05 09:28:05;;;;;;;82.38;22.95;;;;;;;;;;5016222;28;20124;-58
2023/03/05 09:30:30;;;;;;;90.55;24.02;;;;;;;;;;5023405;28;20486;-56
2023/03/05 09:32:55;;;;;;;90.25;23.42;;;;;;;;;;5027545;28;20034;-64
2023/03/05 09:35:21;;;;;;;73.13;21.73;;;;;;;;;;5025459;28;20470;-58
2023/03/05 09:37:46;;;;;;;91.63;23.25;;;;;;;;;;5025607;28;20056;-61
2023/03/05 09:40:15;;;;;;;82.35;23.30;;;;;;;;;;5055757;28;20022;-60
2023/03/05 09:43:02;;;;;;;85.07;23.65;;;;;;;;;;5021913;28;20104;-63
2023/03/05 09:45:31;;;;;;;87.75;24.98;;;;;;;;;;5013369;28;20052;-65
2023/03/05 09:48:04;;;;;;;89.47;23.00;;;;;;;;;;5027854;28;20037;-60
2023/03/05 09:50:36;;;;;;;82.35;23.60;;;;;;;;;;5024171;28;20021;-65
2023/03/05 09:53:14;;;;;;;82.85;23.27;;;;;;;;;;5023899;28;20665;-62
2023/03/05 09:55:49;;;;;;;80.35;22.92;;;;;;;;;;5022995;28;20025;-63
2023/03/05 09:58:16;;;;;;;78.55;21.92;;;;;;;;;;5030596;28;20037;-55
2023/03/05 10:00:48;;;;;;;89.45;24.92;;;;;;;;;;5026307;28;20029;-58
2023/03/05 10:03:29;;;;;;;88.57;23.77;;;;;;;;;;5025588;28;20029;-59
2023/03/05 10:06:09;;;;;;;83.63;23.88;;;;;;;;;;5026048;28;20045;-61
2023/03/05 10:08:43;;;;;;;90.13;25.05;;;;;;;;;;5027359;28;20088;-60
2023/03/05 10:11:10;;;;;;;84.95;23.90;;;;;;;;;;5024141;28;20037;-59
2023/03/05 10:13:38;;;;;;;90.88;24.20;;;;;;;;;;5025932;28;20086;-53
2023/03/05 10:16:09;;;;;;;91.05;23.75;;;;;;;;;;5025215;28;20125;-65
2023/03/05 10:18:53;;;;;;;84.82;23.40;;;;;;;;;;5026049;28;20037;-59
2023/03/05 10:21:30;;;;;;;90.63;25.83;;;;;;;;;;5024813;28;20038;-56
2023/03/05 10:23:59;;;;;;;87.55;24.33;;;;;;;;;;5025597;28;20049;-57
2023/03/05 10:26:42;;;;;;;92.18;24.33;;;;;;;;;;5026539;28;20485;-57
2023/03/05 10:29:13;;;;;;;85.55;23.92;;;;;;;;;;5026347;28;20041;-62
2023/03/05 10:31:44;;;;;;;84.90;24.77;;;;;;;;;;5026187;28;20048;-63
2023/03/05 10:34:13;;;;;;;89.63;24.90;;;;;;;;;;5023194;28;20674;-60
2023/03/05 10:36:54;;;;;;;92.25;29.50;;;;;;;;;;5024147;28;20064;-55
2023/03/05 10:39:37;;;;;;;92.75;25.20;;;;;;;;;;5027047;28;20056;-62
2023/03/05 10:42:05;;;;;;;90.20;23.88;;;;;;;;;;5025150;28;20505;-62
2023/03/05 10:44:33;;;;;;;87.97;25.33;;;;;;;;;;5023643;28;20789;-66
2023/03/05 10:47:00;;;;;;;85.13;26.05;;;;;;;;;;5020811;28;20064;-62
2023/03/05 10:49:25;;;;;;;83.40;25.00;;;;;;;;;;5020900;28;20079;-67
2023/03/05 10:51:59;;;;;;;86.93;25.50;;;;;;;;;;5008728;28;20565;-58
2023/03/05 10:54:30;;;;;;;78.05;22.75;;;;;;;;;;5016201;28;20095;-55
2023/03/05 10:57:10;;;;;;;70.97;22.45;;;;;;;;;;5017024;28;20045;-63
2023/03/05 10:59:36;;;;;;;86.03;24.63;;;;;;;;;;5029912;28;20144;-56
2023/03/05 11:02:07;;;;;;;87.63;24.40;;;;;;;;;;5024088;28;20095;-58
2023/03/05 11:04:34;;;;;;;87.75;23.80;;;;;;;;;;5015781;28;20037;-58
2023/03/05 11:07:04;;;;;;;80.75;23.80;;;;;;;;;;5020829;28;20030;-67
2023/03/05 11:09:32;;;;;;;84.57;24.75;;;;;;;;;;5028899;28;20030;-66
2023/03/05 11:12:01;;;;;;;110.20;27.85;;;;;;;;;;5022005;28;20117;-64
2023/03/05 11:14:32;;;;;;;121.60;32.83;;;;;;;;;;5026588;28;20052;-60
2023/03/05 11:16:58;;;;;;;105.72;29.45;;;;;;;;;;5021686;28;20038;-64
2023/03/05 11:19:28;;;;;;;88.07;27.57;;;;;;;;;;5017916;28;20527;-60
2023/03/05 11:22:26;;;;;;;102.93;27.80;;;;;;;;;;5022763;28;20028;-60
2023/03/05 11:25:03;;;;;;;94.82;27.13;;;;;;;;;;4994570;28;20042;-54
2023/03/05 11:27:36;;;;;;;102.45;26.15;;;;;;;;;;5016890;28;20029;-61
2023/03/05 11:30:01;;;;;;;100.05;27.35;;;;;;;;;;5022410;28;20044;-58
2023/03/05 11:32:28;;;;;;;113.55;29.33;;;;;;;;;;5017705;28;20017;-64
2023/03/05 11:34:54;;;;;;;101.53;27.88;;;;;;;;;;5024440;28;20029;-57
2023/03/05 11:37:25;;;;;;;98.22;27.25;;;;;;;;;;5018558;28;20033;-59
2023/03/05 11:40:07;;;;;;;107.03;28.67;;;;;;;;;;5018184;28;20026;-67
2023/03/05 11:42:32;;;;;;;84.50;26.27;;;;;;;;;;5026123;28;20083;-57
2023/03/05 11:44:58;;;;;;;101.82;30.48;;;;;;;;;;5018326;28;20024;-61
2023/03/05 11:47:33;;;;;;;109.22;29.17;;;;;;;;;;5014805;28;20819;-59
2023/03/05 11:50:15;;;;;;;98.05;28.17;;;;;;;;;;5022454;28;20033;-66
2023/03/05 11:52:45;;;;;;;92.80;28.30;;;;;;;;;;5018475;28;20029;-61
2023/03/05 11:55:18;;;;;;;87.47;27.55;;;;;;;;;;5025373;28;20033;-58
2023/03/05 11:57:47;;;;;;;101.82;30.50;;;;;;;;;;5020423;28;20086;-57
2023/03/05 12:00:15;;;;;;;97.80;30.60;;;;;;;;;;5020030;28;20137;-61
2023/03/05 12:02:40;;;;;;;99.53;30.55;;;;;;;;;;5023451;28;20441;-62
2023/03/05 12:05:06;;;;;;;106.93;30.67;;;;;;;;;;5018831;28;20585;-60
2023/03/05 12:07:36;;;;;;;99.35;29.50;;;;;;;;;;5021092;28;20051;-60
2023/03/05 12:10:02;;;;;;;94.10;27.90;;;;;;;;;;5028013;28;20033;-61
2023/03/05 12:12:37;;;;;;;92.97;29.90;;;;;;;;;;5020545;28;20028;-61
2023/03/05 12:15:02;;;;;;;88.68;29.58;;;;;;;;;;5022386;28;20064;-58
2023/03/05 12:17:30;;;;;;;101.53;29.00;;;;;;;;;;5021676;28;20116;-63
2023/03/05 12:19:55;;;;;;;118.28;30.55;;;;;;;;;;5015777;28;20064;-65
2023/03/05 12:22:22;;;;;;;102.05;30.35;;;;;;;;;;5021055;28;20100;-65
2023/03/05 12:24:47;;;;;;;116.57;31.03;;;;;;;;;;5013858;28;20079;-59
2023/03/05 12:27:31;;;;;;;106.13;29.65;;;;;;;;;;5022698;28;20294;-60
2023/03/05 12:30:00;;;;;;;101.05;28.15;;;;;;;;;;5018155;28;20932;-62
2023/03/05 12:32:28;;;;;;;96.57;28.40;;;;;;;;;;5017272;28;20041;-58
2023/03/05 12:34:56;;;;;;;93.15;27.05;;;;;;;;;;5019165;28;20174;-65
2023/03/05 12:37:22;;;;;;;91.93;27.92;;;;;;;;;;5015526;28;20526;-68
2023/03/05 12:39:48;;;;;;;95.07;27.35;;;;;;;;;;5018309;28;20033;-61
2023/03/05 12:42:39;;;;;;;89.40;27.17;;;;;;;;;;5023672;28;20029;-64
2023/03/05 12:45:07;;;;;;;102.20;28.00;;;;;;;;;;5004421;28;20060;-63
2023/03/05 12:47:33;;;;;;;94.30;27.90;;;;;;;;;;5023865;28;20516;-61
2023/03/05 12:49:59;;;;;;;84.07;26.63;;;;;;;;;;5015386;28;20092;-66
2023/03/05 12:52:26;;;;;;;90.83;25.60;;;;;;;;;;5016014;28;20114;-63
2023/03/05 12:54:58;;;;;;;97.80;26.65;;;;;;;;;;5021303;28;20600;-61
2023/03/05 12:57:28;;;;;;;85.30;26.48;;;;;;;;;;5016855;28;20494;-61
2023/03/05 13:00:12;;;;;;;91.15;27.35;;;;;;;;;;5022527;28;20030;-67
2023/03/05 13:02:41;;;;;;;97.57;27.30;;;;;;;;;;5023774;28;20041;-64
2023/03/05 13:05:16;;;;;;;83.70;25.70;;;;;;;;;;5017669;28;20025;-62
2023/03/05 13:07:41;;;;;;;83.82;24.20;;;;;;;;;;5020070;28;20598;-59
2023/03/05 13:10:19;;;;;;;90.85;29.70;;;;;;;;;;5014402;28;20537;-61
2023/03/05 13:12:49;;;;;;;84.20;25.02;;;;;;;;;;5016993;28;21019;-64
2023/03/05 13:15:15;;;;;;;74.90;25.05;;;;;;;;;;5019261;28;20370;-63
2023/03/05 13:17:49;;;;;;;82.40;25.25;;;;;;;;;;5017457;28;20594;-57
2023/03/05 13:20:36;;;;;;;78.03;26.10;;;;;;;;;;5019374;28;20050;-58
2023/03/05 13:23:01;;;;;;;88.13;28.95;;;;;;;;;;5024604;28;20113;-61
2023/03/05 13:25:27;;;;;;;77.10;26.13;;;;;;;;;;5015898;28;20601;-59
2023/03/05 13:28:00;;;;;;;85.70;25.80;;;;;;;;;;5025330;28;20043;-63
2023/03/05 13:30:27;;;;;;;84.85;25.75;;;;;;;;;;5015911;28;20040;-59
2023/03/05 13:33:03;;;;;;;75.57;23.90;;;;;;;;;;5017128;28;20017;-62
2023/03/05 13:35:29;;;;;;;85.45;25.30;;;;;;;;;;5039785;28;20518;-61
2023/03/05 13:37:55;;;;;;;90.20;26.45;;;;;;;;;;5005681;28;20561;-58
2023/03/05 13:40:25;;;;;;;80.03;24.63;;;;;;;;;;5009662;28;20091;-59
2023/03/05 13:42:52;;;;;;;76.95;24.65;;;;;;;;;;5019411;28;20049;-57
2023/03/05 13:45:30;;;;;;;79.72;25.13;;;;;;;;;;5019192;28;20060;-58
2023/03/05 13:47:57;;;;;;;83.50;25.77;;;;;;;;;;5020666;28;20131;-60
2023/03/05 13:50:24;;;;;;;81.35;25.17;;;;;;;;;;5016399;28;20022;-59
2023/03/05 13:52:49;;;;;;;83.20;24.52;;;;;;;;;;5018300;28;20033;-56
2023/03/05 13:55:16;;;;;;;92.07;25.45;;;;;;;;;;5024534;28;20098;-61
2023/03/05 13:57:41;;;;;;;88.85;25.02;;;;;;;;;;5016605;28;20026;-57
2023/03/05 14:00:29;;;;;;;93.50;26.27;;;;;;;;;;5023405;28;20141;-57
2023/03/05 14:02:56;;;;;;;83.05;24.75;;;;;;;;;;5024329;28;20029;-61
2023/03/05 14:05:21;;;;;;;92.60;27.17;;;;;;;;;;5016384;28;20367;-60
2023/03/05 14:07:50;;;;;;;88.18;26.38;;;;;;;;;;5023464;28;20465;-61
2023/03/05 14:10:31;;;;;;;81.18;25.90;;;;;;;;;;5015322;28;20033;-58
2023/03/05 14:12:57;;;;;;;79.07;27.25;;;;;;;;;;5014209;28;20027;-63